sensor_id;sensor_type;location;lat;lon;timestamp;P1;durP1;ratioP1;P2;durP2;ratioP2
51764;SDS011;37835;53.256;6.456;2022-11-20T00:00:28;30.50;;;18.27;;
51764;SDS011;37835;53.256;6.456;2022-11-20T00:02:54;26.20;;;16.77;;
51764;SDS011;37835;53.256;6.456;2022-11-20T00:05:19;22.97;;;16.27;;
51764;SDS011;37835;53.256;6.456;2022-11-20T00:07:46;28.10;;;16.90;;
51764;SDS011;37835;53.256;6.456;2022-11-20T00:10:11;25.53;;;16.37;;
51764;SDS011;37835;53.256;6.456;2022-11-20T00:12:37;24.60;;;16.10;;
51764;SDS011;37835;53.256;6.456;2022-11-20T00:15:03;24.53;;;15.97;;
51764;SDS011;37835;53.256;6.456;2022-11-20T00:17:29;27.20;;;16.50;;
51764;SDS011;37835;53.256;6.456;2022-11-20T00:19:55;25.73;;;15.53;;
51764;SDS011;37835;53.256;6.456;2022-11-20T00:22:20;25.60;;;16.53;;
51764;SDS011;37835;53.256;6.456;2022-11-20T00:24:46;25.17;;;16.03;;
51764;SDS011;37835;53.256;6.456;2022-11-20T00:27:11;26.00;;;15.50;;
51764;SDS011;37835;53.256;6.456;2022-11-20T00:29:37;26.60;;;17.03;;
51764;SDS011;37835;53.256;6.456;2022-11-20T00:32:03;24.20;;;16.63;;
51764;SDS011;37835;53.256;6.456;2022-11-20T00:34:28;25.23;;;15.97;;
51764;SDS011;37835;53.256;6.456;2022-11-20T00:36:54;23.93;;;16.30;;
51764;SDS011;37835;53.256;6.456;2022-11-20T00:39:19;24.07;;;15.63;;
51764;SDS011;37835;53.256;6.456;2022-11-20T00:41:45;25.43;;;16.27;;
51764;SDS011;37835;53.256;6.456;2022-11-20T00:44:10;24.80;;;16.20;;
51764;SDS011;37835;53.256;6.456;2022-11-20T00:46:36;25.80;;;15.90;;
51764;SDS011;37835;53.256;6.456;2022-11-20T00:49:02;23.70;;;15.47;;
51764;SDS011;37835;53.256;6.456;2022-11-20T00:51:27;20.37;;;14.27;;
51764;SDS011;37835;53.256;6.456;2022-11-20T00:53:57;24.90;;;14.80;;
51764;SDS011;37835;53.256;6.456;2022-11-20T00:56:23;23.23;;;15.33;;
51764;SDS011;37835;53.256;6.456;2022-11-20T00:58:48;22.77;;;15.10;;
51764;SDS011;37835;53.256;6.456;2022-11-20T01:03:41;22.20;;;14.60;;
51764;SDS011;37835;53.256;6.456;2022-11-20T01:06:13;24.03;;;15.77;;
51764;SDS011;37835;53.256;6.456;2022-11-20T01:08:44;24.03;;;15.40;;
51764;SDS011;37835;53.256;6.456;2022-11-20T01:11:11;22.60;;;14.50;;
51764;SDS011;37835;53.256;6.456;2022-11-20T01:13:38;23.63;;;15.80;;
51764;SDS011;37835;53.256;6.456;2022-11-20T01:16:08;25.27;;;15.20;;
51764;SDS011;37835;53.256;6.456;2022-11-20T01:18:36;23.45;;;15.65;;
51764;SDS011;37835;53.256;6.456;2022-11-20T01:21:04;23.00;;;15.00;;
51764;SDS011;37835;53.256;6.456;2022-11-20T01:23:32;23.73;;;15.77;;
51764;SDS011;37835;53.256;6.456;2022-11-20T01:26:00;20.83;;;15.10;;
51764;SDS011;37835;53.256;6.456;2022-11-20T01:28:26;24.73;;;16.07;;
51764;SDS011;37835;53.256;6.456;2022-11-20T01:30:52;22.27;;;15.37;;
51764;SDS011;37835;53.256;6.456;2022-11-20T01:33:18;26.83;;;15.50;;
51764;SDS011;37835;53.256;6.456;2022-11-20T01:35:43;23.23;;;14.53;;
51764;SDS011;37835;53.256;6.456;2022-11-20T01:38:09;20.27;;;14.73;;
51764;SDS011;37835;53.256;6.456;2022-11-20T01:40:35;25.67;;;16.17;;
51764;SDS011;37835;53.256;6.456;2022-11-20T01:43:21;24.87;;;16.27;;
51764;SDS011;37835;53.256;6.456;2022-11-20T01:48:20;26.13;;;16.77;;
51764;SDS011;37835;53.256;6.456;2022-11-20T01:50:49;23.13;;;15.23;;
51764;SDS011;37835;53.256;6.456;2022-11-20T01:53:17;26.70;;;16.73;;
51764;SDS011;37835;53.256;6.456;2022-11-20T01:55:47;22.33;;;14.97;;
51764;SDS011;37835;53.256;6.456;2022-11-20T01:58:16;26.43;;;16.17;;
51764;SDS011;37835;53.256;6.456;2022-11-20T02:00:47;24.07;;;15.90;;
51764;SDS011;37835;53.256;6.456;2022-11-20T02:03:14;23.97;;;15.30;;
51764;SDS011;37835;53.256;6.456;2022-11-20T02:08:28;27.00;;;17.07;;
51764;SDS011;37835;53.256;6.456;2022-11-20T02:10:55;24.43;;;16.60;;
51764;SDS011;37835;53.256;6.456;2022-11-20T02:13:21;25.20;;;16.03;;
51764;SDS011;37835;53.256;6.456;2022-11-20T02:16:05;26.00;;;16.33;;
51764;SDS011;37835;53.256;6.456;2022-11-20T02:18:42;26.10;;;16.70;;
51764;SDS011;37835;53.256;6.456;2022-11-20T02:21:13;24.57;;;16.47;;
51764;SDS011;37835;53.256;6.456;2022-11-20T02:24:02;26.07;;;15.60;;
51764;SDS011;37835;53.256;6.456;2022-11-20T02:26:36;24.97;;;14.90;;
51764;SDS011;37835;53.256;6.456;2022-11-20T02:29:19;23.50;;;15.47;;
51764;SDS011;37835;53.256;6.456;2022-11-20T02:31:54;26.57;;;16.30;;
51764;SDS011;37835;53.256;6.456;2022-11-20T02:34:21;22.53;;;15.03;;
51764;SDS011;37835;53.256;6.456;2022-11-20T02:36:47;23.47;;;15.87;;
51764;SDS011;37835;53.256;6.456;2022-11-20T02:39:15;28.20;;;16.67;;
51764;SDS011;37835;53.256;6.456;2022-11-20T02:41:44;25.17;;;16.07;;
51764;SDS011;37835;53.256;6.456;2022-11-20T02:44:09;25.80;;;16.30;;
51764;SDS011;37835;53.256;6.456;2022-11-20T02:46:35;25.53;;;16.07;;
51764;SDS011;37835;53.256;6.456;2022-11-20T02:49:02;26.10;;;17.03;;
51764;SDS011;37835;53.256;6.456;2022-11-20T02:51:28;26.17;;;16.83;;
51764;SDS011;37835;53.256;6.456;2022-11-20T02:53:54;24.67;;;15.63;;
51764;SDS011;37835;53.256;6.456;2022-11-20T02:56:20;23.63;;;15.57;;
51764;SDS011;37835;53.256;6.456;2022-11-20T02:58:45;24.10;;;16.07;;
51764;SDS011;37835;53.256;6.456;2022-11-20T03:01:12;26.40;;;15.67;;
51764;SDS011;37835;53.256;6.456;2022-11-20T03:03:38;25.23;;;16.10;;
51764;SDS011;37835;53.256;6.456;2022-11-20T03:06:03;27.27;;;16.57;;
51764;SDS011;37835;53.256;6.456;2022-11-20T03:08:29;24.80;;;16.20;;
51764;SDS011;37835;53.256;6.456;2022-11-20T03:10:54;23.30;;;15.57;;
51764;SDS011;37835;53.256;6.456;2022-11-20T03:13:20;22.93;;;15.10;;
51764;SDS011;37835;53.256;6.456;2022-11-20T03:15:46;25.37;;;15.30;;
51764;SDS011;37835;53.256;6.456;2022-11-20T03:18:11;24.20;;;15.40;;
51764;SDS011;37835;53.256;6.456;2022-11-20T03:20:38;23.50;;;15.67;;
51764;SDS011;37835;53.256;6.456;2022-11-20T03:23:04;28.00;;;15.77;;
51764;SDS011;37835;53.256;6.456;2022-11-20T03:25:30;23.67;;;14.93;;
51764;SDS011;37835;53.256;6.456;2022-11-20T03:27:55;23.03;;;15.60;;
51764;SDS011;37835;53.256;6.456;2022-11-20T03:30:21;25.70;;;15.43;;
51764;SDS011;37835;53.256;6.456;2022-11-20T03:32:47;21.30;;;14.00;;
51764;SDS011;37835;53.256;6.456;2022-11-20T03:35:12;22.57;;;15.30;;
51764;SDS011;37835;53.256;6.456;2022-11-20T03:37:38;22.17;;;14.50;;
51764;SDS011;37835;53.256;6.456;2022-11-20T03:40:04;21.37;;;14.80;;
51764;SDS011;37835;53.256;6.456;2022-11-20T03:42:30;21.73;;;14.40;;
51764;SDS011;37835;53.256;6.456;2022-11-20T03:45:11;20.20;;;14.17;;
51764;SDS011;37835;53.256;6.456;2022-11-20T03:47:40;22.30;;;14.60;;
51764;SDS011;37835;53.256;6.456;2022-11-20T03:50:06;23.90;;;14.83;;
51764;SDS011;37835;53.256;6.456;2022-11-20T03:52:32;22.07;;;14.83;;
51764;SDS011;37835;53.256;6.456;2022-11-20T03:54:58;23.73;;;14.97;;
51764;SDS011;37835;53.256;6.456;2022-11-20T03:57:23;22.90;;;14.87;;
51764;SDS011;37835;53.256;6.456;2022-11-20T03:59:49;20.53;;;14.47;;
51764;SDS011;37835;53.256;6.456;2022-11-20T04:02:15;22.50;;;14.80;;
51764;SDS011;37835;53.256;6.456;2022-11-20T04:04:40;21.97;;;14.27;;
51764;SDS011;37835;53.256;6.456;2022-11-20T04:07:06;21.70;;;15.10;;
51764;SDS011;37835;53.256;6.456;2022-11-20T04:09:31;22.47;;;14.70;;
51764;SDS011;37835;53.256;6.456;2022-11-20T04:11:57;23.27;;;15.10;;
51764;SDS011;37835;53.256;6.456;2022-11-20T04:14:22;20.67;;;14.50;;
51764;SDS011;37835;53.256;6.456;2022-11-20T04:16:48;21.23;;;14.23;;
51764;SDS011;37835;53.256;6.456;2022-11-20T04:19:14;21.43;;;14.40;;
51764;SDS011;37835;53.256;6.456;2022-11-20T04:21:41;20.60;;;13.77;;
51764;SDS011;37835;53.256;6.456;2022-11-20T04:24:07;22.83;;;14.57;;
51764;SDS011;37835;53.256;6.456;2022-11-20T04:26:33;20.67;;;13.30;;
51764;SDS011;37835;53.256;6.456;2022-11-20T04:28:59;19.83;;;14.13;;
51764;SDS011;37835;53.256;6.456;2022-11-20T04:31:30;19.10;;;13.40;;
51764;SDS011;37835;53.256;6.456;2022-11-20T04:34:00;20.53;;;14.00;;
51764;SDS011;37835;53.256;6.456;2022-11-20T04:36:28;20.70;;;13.83;;
51764;SDS011;37835;53.256;6.456;2022-11-20T04:38:55;21.77;;;13.50;;
51764;SDS011;37835;53.256;6.456;2022-11-20T04:41:22;18.60;;;12.87;;
51764;SDS011;37835;53.256;6.456;2022-11-20T04:43:50;21.57;;;14.10;;
51764;SDS011;37835;53.256;6.456;2022-11-20T04:46:17;20.13;;;13.63;;
51764;SDS011;37835;53.256;6.456;2022-11-20T04:48:43;18.53;;;13.10;;
51764;SDS011;37835;53.256;6.456;2022-11-20T04:51:09;24.93;;;13.40;;
51764;SDS011;37835;53.256;6.456;2022-11-20T04:53:35;20.63;;;14.10;;
51764;SDS011;37835;53.256;6.456;2022-11-20T04:56:01;23.40;;;13.80;;
51764;SDS011;37835;53.256;6.456;2022-11-20T04:58:27;21.30;;;13.93;;
51764;SDS011;37835;53.256;6.456;2022-11-20T05:00:53;18.43;;;12.63;;
51764;SDS011;37835;53.256;6.456;2022-11-20T05:03:25;21.67;;;13.95;;
51764;SDS011;37835;53.256;6.456;2022-11-20T05:05:50;18.67;;;12.87;;
51764;SDS011;37835;53.256;6.456;2022-11-20T05:08:16;19.97;;;13.43;;
51764;SDS011;37835;53.256;6.456;2022-11-20T05:10:42;22.57;;;13.27;;
51764;SDS011;37835;53.256;6.456;2022-11-20T05:13:07;21.33;;;13.20;;
51764;SDS011;37835;53.256;6.456;2022-11-20T05:15:33;20.40;;;13.10;;
51764;SDS011;37835;53.256;6.456;2022-11-20T05:17:58;18.50;;;12.07;;
51764;SDS011;37835;53.256;6.456;2022-11-20T05:20:24;19.17;;;13.33;;
51764;SDS011;37835;53.256;6.456;2022-11-20T05:22:49;18.43;;;13.13;;
51764;SDS011;37835;53.256;6.456;2022-11-20T05:25:15;19.43;;;12.63;;
51764;SDS011;37835;53.256;6.456;2022-11-20T05:27:40;19.70;;;12.53;;
51764;SDS011;37835;53.256;6.456;2022-11-20T05:30:06;17.03;;;12.30;;
51764;SDS011;37835;53.256;6.456;2022-11-20T05:32:32;15.63;;;12.03;;
51764;SDS011;37835;53.256;6.456;2022-11-20T05:34:58;19.53;;;13.33;;
51764;SDS011;37835;53.256;6.456;2022-11-20T05:37:23;17.90;;;12.90;;
51764;SDS011;37835;53.256;6.456;2022-11-20T05:39:49;18.83;;;12.77;;
51764;SDS011;37835;53.256;6.456;2022-11-20T05:42:15;18.23;;;12.37;;
51764;SDS011;37835;53.256;6.456;2022-11-20T05:44:59;19.37;;;12.30;;
51764;SDS011;37835;53.256;6.456;2022-11-20T05:47:26;20.53;;;13.30;;
51764;SDS011;37835;53.256;6.456;2022-11-20T05:49:53;19.43;;;13.33;;
51764;SDS011;37835;53.256;6.456;2022-11-20T05:52:19;22.20;;;13.53;;
51764;SDS011;37835;53.256;6.456;2022-11-20T05:54:45;19.27;;;12.90;;
51764;SDS011;37835;53.256;6.456;2022-11-20T05:57:10;18.07;;;12.27;;
51764;SDS011;37835;53.256;6.456;2022-11-20T05:59:36;17.90;;;12.33;;
51764;SDS011;37835;53.256;6.456;2022-11-20T06:02:02;19.30;;;13.00;;
51764;SDS011;37835;53.256;6.456;2022-11-20T06:04:27;18.10;;;12.63;;
51764;SDS011;37835;53.256;6.456;2022-11-20T06:06:53;20.87;;;12.73;;
51764;SDS011;37835;53.256;6.456;2022-11-20T06:09:18;18.67;;;12.10;;
51764;SDS011;37835;53.256;6.456;2022-11-20T06:11:44;17.90;;;12.10;;
51764;SDS011;37835;53.256;6.456;2022-11-20T06:14:09;18.77;;;13.00;;
51764;SDS011;37835;53.256;6.456;2022-11-20T06:16:35;16.57;;;12.27;;
51764;SDS011;37835;53.256;6.456;2022-11-20T06:19:01;19.50;;;12.70;;
51764;SDS011;37835;53.256;6.456;2022-11-20T06:21:26;18.63;;;12.57;;
51764;SDS011;37835;53.256;6.456;2022-11-20T06:23:52;20.00;;;12.70;;
51764;SDS011;37835;53.256;6.456;2022-11-20T06:26:19;18.47;;;13.00;;
51764;SDS011;37835;53.256;6.456;2022-11-20T06:28:47;17.93;;;12.27;;
51764;SDS011;37835;53.256;6.456;2022-11-20T06:31:14;16.90;;;12.63;;
51764;SDS011;37835;53.256;6.456;2022-11-20T06:33:41;19.67;;;11.87;;
51764;SDS011;37835;53.256;6.456;2022-11-20T06:36:07;20.07;;;12.87;;
51764;SDS011;37835;53.256;6.456;2022-11-20T06:38:35;18.23;;;12.67;;
51764;SDS011;37835;53.256;6.456;2022-11-20T06:41:00;15.97;;;11.43;;
51764;SDS011;37835;53.256;6.456;2022-11-20T06:43:28;16.87;;;12.10;;
51764;SDS011;37835;53.256;6.456;2022-11-20T06:45:54;16.53;;;11.60;;
51764;SDS011;37835;53.256;6.456;2022-11-20T06:48:21;15.67;;;11.47;;
51764;SDS011;37835;53.256;6.456;2022-11-20T06:50:48;17.60;;;11.70;;
51764;SDS011;37835;53.256;6.456;2022-11-20T06:53:13;16.53;;;11.43;;
51764;SDS011;37835;53.256;6.456;2022-11-20T06:55:46;16.83;;;11.50;;
51764;SDS011;37835;53.256;6.456;2022-11-20T06:58:13;16.63;;;11.43;;
51764;SDS011;37835;53.256;6.456;2022-11-20T07:00:39;15.03;;;11.00;;
51764;SDS011;37835;53.256;6.456;2022-11-20T07:03:05;17.30;;;11.43;;
51764;SDS011;37835;53.256;6.456;2022-11-20T07:05:32;17.07;;;11.87;;
51764;SDS011;37835;53.256;6.456;2022-11-20T07:07:58;15.93;;;11.47;;
51764;SDS011;37835;53.256;6.456;2022-11-20T07:10:24;15.93;;;10.93;;
51764;SDS011;37835;53.256;6.456;2022-11-20T07:12:51;16.93;;;11.57;;
51764;SDS011;37835;53.256;6.456;2022-11-20T07:15:17;15.27;;;10.93;;
51764;SDS011;37835;53.256;6.456;2022-11-20T07:17:47;15.97;;;11.30;;
51764;SDS011;37835;53.256;6.456;2022-11-20T07:20:13;16.40;;;11.63;;
51764;SDS011;37835;53.256;6.456;2022-11-20T07:22:39;15.27;;;10.87;;
51764;SDS011;37835;53.256;6.456;2022-11-20T07:25:05;14.93;;;10.87;;
51764;SDS011;37835;53.256;6.456;2022-11-20T07:27:31;15.70;;;11.83;;
51764;SDS011;37835;53.256;6.456;2022-11-20T07:29:57;16.80;;;11.70;;
51764;SDS011;37835;53.256;6.456;2022-11-20T07:32:22;15.07;;;10.80;;
51764;SDS011;37835;53.256;6.456;2022-11-20T07:34:48;15.10;;;11.30;;
51764;SDS011;37835;53.256;6.456;2022-11-20T07:37:14;16.50;;;11.80;;
51764;SDS011;37835;53.256;6.456;2022-11-20T07:39:39;16.77;;;11.20;;
51764;SDS011;37835;53.256;6.456;2022-11-20T07:42:06;18.00;;;12.13;;
51764;SDS011;37835;53.256;6.456;2022-11-20T07:44:32;17.43;;;12.10;;
51764;SDS011;37835;53.256;6.456;2022-11-20T07:46:57;21.10;;;12.10;;
51764;SDS011;37835;53.256;6.456;2022-11-20T07:49:23;14.83;;;10.97;;
51764;SDS011;37835;53.256;6.456;2022-11-20T07:51:52;15.40;;;11.20;;
51764;SDS011;37835;53.256;6.456;2022-11-20T07:54:19;15.30;;;11.20;;
51764;SDS011;37835;53.256;6.456;2022-11-20T07:56:45;16.80;;;11.57;;
51764;SDS011;37835;53.256;6.456;2022-11-20T07:59:11;17.23;;;11.13;;
51764;SDS011;37835;53.256;6.456;2022-11-20T08:01:37;15.53;;;11.30;;
51764;SDS011;37835;53.256;6.456;2022-11-20T08:04:03;15.40;;;11.87;;
51764;SDS011;37835;53.256;6.456;2022-11-20T08:06:29;15.90;;;11.07;;
51764;SDS011;37835;53.256;6.456;2022-11-20T08:08:55;16.63;;;11.47;;
51764;SDS011;37835;53.256;6.456;2022-11-20T08:11:21;17.23;;;11.57;;
51764;SDS011;37835;53.256;6.456;2022-11-20T08:14:05;15.50;;;10.83;;
51764;SDS011;37835;53.256;6.456;2022-11-20T08:16:36;16.10;;;11.35;;
51764;SDS011;37835;53.256;6.456;2022-11-20T08:19:02;15.80;;;11.73;;
51764;SDS011;37835;53.256;6.456;2022-11-20T08:21:28;17.80;;;11.53;;
51764;SDS011;37835;53.256;6.456;2022-11-20T08:23:55;15.87;;;11.47;;
51764;SDS011;37835;53.256;6.456;2022-11-20T08:26:20;14.93;;;11.67;;
51764;SDS011;37835;53.256;6.456;2022-11-20T08:28:47;16.27;;;11.23;;
51764;SDS011;37835;53.256;6.456;2022-11-20T08:31:13;17.57;;;11.90;;
51764;SDS011;37835;53.256;6.456;2022-11-20T08:33:38;17.83;;;12.30;;
51764;SDS011;37835;53.256;6.456;2022-11-20T08:36:05;17.07;;;11.43;;
51764;SDS011;37835;53.256;6.456;2022-11-20T08:38:31;18.63;;;11.87;;
51764;SDS011;37835;53.256;6.456;2022-11-20T08:40:58;17.03;;;11.73;;
51764;SDS011;37835;53.256;6.456;2022-11-20T08:43:43;15.87;;;11.67;;
51764;SDS011;37835;53.256;6.456;2022-11-20T08:46:09;16.47;;;11.50;;
51764;SDS011;37835;53.256;6.456;2022-11-20T08:48:35;15.97;;;11.60;;
51764;SDS011;37835;53.256;6.456;2022-11-20T08:51:00;17.57;;;12.03;;
51764;SDS011;37835;53.256;6.456;2022-11-20T08:53:26;17.70;;;12.30;;
51764;SDS011;37835;53.256;6.456;2022-11-20T08:55:52;15.23;;;11.47;;
51764;SDS011;37835;53.256;6.456;2022-11-20T08:58:18;16.63;;;11.63;;
51764;SDS011;37835;53.256;6.456;2022-11-20T09:00:43;15.40;;;11.87;;
51764;SDS011;37835;53.256;6.456;2022-11-20T09:03:09;16.87;;;11.77;;
51764;SDS011;37835;53.256;6.456;2022-11-20T09:05:35;17.07;;;11.93;;
51764;SDS011;37835;53.256;6.456;2022-11-20T09:08:00;18.70;;;11.97;;
51764;SDS011;37835;53.256;6.456;2022-11-20T09:10:26;17.23;;;11.67;;
51764;SDS011;37835;53.256;6.456;2022-11-20T09:12:52;17.00;;;11.83;;
51764;SDS011;37835;53.256;6.456;2022-11-20T09:15:18;16.37;;;11.23;;
51764;SDS011;37835;53.256;6.456;2022-11-20T09:17:53;20.27;;;12.50;;
51764;SDS011;37835;53.256;6.456;2022-11-20T09:20:20;16.83;;;12.37;;
51764;SDS011;37835;53.256;6.456;2022-11-20T09:22:45;18.55;;;12.32;;
51764;SDS011;37835;53.256;6.456;2022-11-20T09:25:11;18.17;;;12.47;;
51764;SDS011;37835;53.256;6.456;2022-11-20T09:27:37;17.48;;;12.02;;
51764;SDS011;37835;53.256;6.456;2022-11-20T09:30:02;19.17;;;12.90;;
51764;SDS011;37835;53.256;6.456;2022-11-20T09:32:28;18.50;;;13.03;;
51764;SDS011;37835;53.256;6.456;2022-11-20T09:34:54;18.30;;;13.07;;
51764;SDS011;37835;53.256;6.456;2022-11-20T09:37:19;19.63;;;12.57;;
51764;SDS011;37835;53.256;6.456;2022-11-20T09:39:45;16.73;;;12.30;;
51764;SDS011;37835;53.256;6.456;2022-11-20T09:42:23;17.43;;;12.37;;
51764;SDS011;37835;53.256;6.456;2022-11-20T09:48:15;19.10;;;12.93;;
51764;SDS011;37835;53.256;6.456;2022-11-20T09:51:03;25.20;;;12.37;;
51764;SDS011;37835;53.256;6.456;2022-11-20T09:56:11;20.20;;;12.77;;
51764;SDS011;37835;53.256;6.456;2022-11-20T09:58:54;19.13;;;13.05;;
51764;SDS011;37835;53.256;6.456;2022-11-20T10:01:23;18.03;;;12.97;;
51764;SDS011;37835;53.256;6.456;2022-11-20T10:03:58;16.63;;;12.25;;
51764;SDS011;37835;53.256;6.456;2022-11-20T10:06:32;16.27;;;11.68;;
51764;SDS011;37835;53.256;6.456;2022-11-20T10:09:01;16.70;;;11.63;;
51764;SDS011;37835;53.256;6.456;2022-11-20T10:20:20;17.57;;;12.30;;
51764;SDS011;37835;53.256;6.456;2022-11-20T10:31:34;16.63;;;12.13;;
51764;SDS011;37835;53.256;6.456;2022-11-20T10:34:05;17.30;;;12.50;;
51764;SDS011;37835;53.256;6.456;2022-11-20T10:36:41;16.65;;;11.38;;
51764;SDS011;37835;53.256;6.456;2022-11-20T10:42:13;16.67;;;12.00;;
51764;SDS011;37835;53.256;6.456;2022-11-20T10:44:43;18.93;;;12.30;;
51764;SDS011;37835;53.256;6.456;2022-11-20T10:47:25;18.20;;;11.20;;
51764;SDS011;37835;53.256;6.456;2022-11-20T10:49:57;16.60;;;10.90;;
51764;SDS011;37835;53.256;6.456;2022-11-20T11:00:38;13.75;;;10.43;;
51764;SDS011;37835;53.256;6.456;2022-11-20T11:03:20;14.00;;;10.52;;
51764;SDS011;37835;53.256;6.456;2022-11-20T11:06:06;17.90;;;11.65;;
51764;SDS011;37835;53.256;6.456;2022-11-20T11:08:38;16.77;;;11.30;;
51764;SDS011;37835;53.256;6.456;2022-11-20T11:11:23;14.48;;;11.20;;
51764;SDS011;37835;53.256;6.456;2022-11-20T11:13:52;14.43;;;11.23;;
51764;SDS011;37835;53.256;6.456;2022-11-20T11:16:22;17.73;;;12.05;;
51764;SDS011;37835;53.256;6.456;2022-11-20T11:18:51;16.50;;;12.77;;
51764;SDS011;37835;53.256;6.456;2022-11-20T11:21:33;17.67;;;11.88;;
51764;SDS011;37835;53.256;6.456;2022-11-20T11:24:00;17.60;;;11.98;;
51764;SDS011;37835;53.256;6.456;2022-11-20T11:26:27;15.32;;;10.55;;
51764;SDS011;37835;53.256;6.456;2022-11-20T11:29:00;13.38;;;10.85;;
51764;SDS011;37835;53.256;6.456;2022-11-20T11:31:30;14.95;;;11.40;;
51764;SDS011;37835;53.256;6.456;2022-11-20T11:34:13;15.20;;;10.68;;
51764;SDS011;37835;53.256;6.456;2022-11-20T11:36:40;31.30;;;19.33;;
51764;SDS011;37835;53.256;6.456;2022-11-20T11:39:11;17.67;;;11.55;;
51764;SDS011;37835;53.256;6.456;2022-11-20T11:41:39;16.83;;;10.65;;
51764;SDS011;37835;53.256;6.456;2022-11-20T11:50:13;13.52;;;9.73;;
51764;SDS011;37835;53.256;6.456;2022-11-20T11:55:37;15.93;;;10.43;;
51764;SDS011;37835;53.256;6.456;2022-11-20T12:01:32;15.87;;;10.30;;
51764;SDS011;37835;53.256;6.456;2022-11-20T12:06:48;11.97;;;9.07;;
51764;SDS011;37835;53.256;6.456;2022-11-20T12:09:24;10.27;;;8.65;;
51764;SDS011;37835;53.256;6.456;2022-11-20T12:12:04;12.00;;;9.00;;
51764;SDS011;37835;53.256;6.456;2022-11-20T12:14:36;15.18;;;9.10;;
51764;SDS011;37835;53.256;6.456;2022-11-20T12:17:03;10.60;;;8.10;;
51764;SDS011;37835;53.256;6.456;2022-11-20T12:19:34;12.05;;;8.07;;
51764;SDS011;37835;53.256;6.456;2022-11-20T12:22:06;11.25;;;8.00;;
51764;SDS011;37835;53.256;6.456;2022-11-20T12:30:39;7.47;;;6.18;;
51764;SDS011;37835;53.256;6.456;2022-11-20T12:41:43;7.45;;;5.20;;
51764;SDS011;37835;53.256;6.456;2022-11-20T12:53:01;7.22;;;5.88;;
51764;SDS011;37835;53.256;6.456;2022-11-20T12:58:55;7.70;;;6.03;;
51764;SDS011;37835;53.256;6.456;2022-11-20T13:01:31;7.72;;;5.20;;
51764;SDS011;37835;53.256;6.456;2022-11-20T13:07:02;8.15;;;5.80;;
51764;SDS011;37835;53.256;6.456;2022-11-20T13:09:32;9.00;;;6.00;;
51764;SDS011;37835;53.256;6.456;2022-11-20T13:12:04;8.65;;;6.53;;
51764;SDS011;37835;53.256;6.456;2022-11-20T13:14:58;7.22;;;5.72;;
51764;SDS011;37835;53.256;6.456;2022-11-20T13:17:38;8.05;;;6.05;;
51764;SDS011;37835;53.256;6.456;2022-11-20T13:20:14;7.68;;;6.30;;
51764;SDS011;37835;53.256;6.456;2022-11-20T13:22:51;8.18;;;5.82;;
51764;SDS011;37835;53.256;6.456;2022-11-20T13:25:35;8.10;;;5.78;;
51764;SDS011;37835;53.256;6.456;2022-11-20T13:30:36;7.43;;;5.65;;
51764;SDS011;37835;53.256;6.456;2022-11-20T13:33:23;8.18;;;6.28;;
51764;SDS011;37835;53.256;6.456;2022-11-20T13:36:05;7.72;;;5.95;;
51764;SDS011;37835;53.256;6.456;2022-11-20T13:38:48;9.55;;;6.15;;
51764;SDS011;37835;53.256;6.456;2022-11-20T13:41:35;8.23;;;6.00;;
51764;SDS011;37835;53.256;6.456;2022-11-20T13:44:13;9.02;;;5.82;;
51764;SDS011;37835;53.256;6.456;2022-11-20T13:46:54;8.50;;;6.63;;
51764;SDS011;37835;53.256;6.456;2022-11-20T13:51:51;9.82;;;7.13;;
51764;SDS011;37835;53.256;6.456;2022-11-20T14:00:22;8.05;;;6.10;;
51764;SDS011;37835;53.256;6.456;2022-11-20T14:05:26;7.82;;;6.60;;
51764;SDS011;37835;53.256;6.456;2022-11-20T14:07:52;10.70;;;7.20;;
51764;SDS011;37835;53.256;6.456;2022-11-20T14:10:19;10.43;;;7.80;;
51764;SDS011;37835;53.256;6.456;2022-11-20T14:12:45;8.57;;;6.93;;
51764;SDS011;37835;53.256;6.456;2022-11-20T14:17:56;10.68;;;7.50;;
51764;SDS011;37835;53.256;6.456;2022-11-20T14:20:26;15.75;;;8.07;;
51764;SDS011;37835;53.256;6.456;2022-11-20T14:22:54;11.50;;;8.60;;
51764;SDS011;37835;53.256;6.456;2022-11-20T14:25:22;14.30;;;8.80;;
51764;SDS011;37835;53.256;6.456;2022-11-20T14:27:52;13.00;;;8.93;;
51764;SDS011;37835;53.256;6.456;2022-11-20T14:30:24;11.50;;;8.45;;
51764;SDS011;37835;53.256;6.456;2022-11-20T14:32:52;14.40;;;9.73;;
51764;SDS011;37835;53.256;6.456;2022-11-20T14:35:23;13.70;;;9.13;;
51764;SDS011;37835;53.256;6.456;2022-11-20T14:37:51;11.30;;;8.27;;
51764;SDS011;37835;53.256;6.456;2022-11-20T14:40:24;12.40;;;8.75;;
51764;SDS011;37835;53.256;6.456;2022-11-20T14:42:56;11.55;;;8.43;;
51764;SDS011;37835;53.256;6.456;2022-11-20T14:45:23;15.90;;;9.23;;
51764;SDS011;37835;53.256;6.456;2022-11-20T14:47:50;9.75;;;7.95;;
51764;SDS011;37835;53.256;6.456;2022-11-20T14:50:28;10.25;;;7.95;;
51764;SDS011;37835;53.256;6.456;2022-11-20T14:52:55;9.85;;;7.82;;
51764;SDS011;37835;53.256;6.456;2022-11-20T14:55:35;13.05;;;8.30;;
51764;SDS011;37835;53.256;6.456;2022-11-20T14:58:18;15.23;;;9.60;;
51764;SDS011;37835;53.256;6.456;2022-11-20T15:00:57;15.70;;;10.85;;
51764;SDS011;37835;53.256;6.456;2022-11-20T15:03:31;13.10;;;9.35;;
51764;SDS011;37835;53.256;6.456;2022-11-20T15:06:01;13.40;;;8.68;;
51764;SDS011;37835;53.256;6.456;2022-11-20T15:08:28;14.82;;;8.63;;
51764;SDS011;37835;53.256;6.456;2022-11-20T15:10:54;13.23;;;8.77;;
51764;SDS011;37835;53.256;6.456;2022-11-20T15:13:29;13.70;;;9.10;;
51764;SDS011;37835;53.256;6.456;2022-11-20T15:16:01;13.38;;;8.90;;
51764;SDS011;37835;53.256;6.456;2022-11-20T15:18:32;12.98;;;9.02;;
51764;SDS011;37835;53.256;6.456;2022-11-20T15:21:03;12.60;;;9.00;;
51764;SDS011;37835;53.256;6.456;2022-11-20T15:23:34;13.68;;;9.25;;
51764;SDS011;37835;53.256;6.456;2022-11-20T15:26:00;11.52;;;8.65;;
51764;SDS011;37835;53.256;6.456;2022-11-20T15:30:57;12.10;;;8.45;;
51764;SDS011;37835;53.256;6.456;2022-11-20T15:33:23;13.13;;;9.10;;
51764;SDS011;37835;53.256;6.456;2022-11-20T15:35:49;13.73;;;9.60;;
51764;SDS011;37835;53.256;6.456;2022-11-20T15:38:15;14.48;;;9.73;;
51764;SDS011;37835;53.256;6.456;2022-11-20T15:40:40;14.77;;;10.93;;
51764;SDS011;37835;53.256;6.456;2022-11-20T15:43:06;16.58;;;11.40;;
51764;SDS011;37835;53.256;6.456;2022-11-20T15:45:33;16.00;;;10.25;;
51764;SDS011;37835;53.256;6.456;2022-11-20T15:48:08;16.50;;;11.65;;
51764;SDS011;37835;53.256;6.456;2022-11-20T15:50:37;16.88;;;10.90;;
51764;SDS011;37835;53.256;6.456;2022-11-20T15:53:08;17.05;;;10.18;;
51764;SDS011;37835;53.256;6.456;2022-11-20T15:55:35;12.82;;;9.57;;
51764;SDS011;37835;53.256;6.456;2022-11-20T15:58:00;19.92;;;10.13;;
51764;SDS011;37835;53.256;6.456;2022-11-20T16:00:27;13.35;;;9.27;;
51764;SDS011;37835;53.256;6.456;2022-11-20T16:02:53;14.82;;;10.20;;
51764;SDS011;37835;53.256;6.456;2022-11-20T16:05:18;14.15;;;10.23;;
51764;SDS011;37835;53.256;6.456;2022-11-20T16:07:44;13.77;;;9.85;;
51764;SDS011;37835;53.256;6.456;2022-11-20T16:10:14;15.27;;;10.75;;
51764;SDS011;37835;53.256;6.456;2022-11-20T16:12:39;14.52;;;10.32;;
51764;SDS011;37835;53.256;6.456;2022-11-20T16:15:24;15.25;;;10.95;;
51764;SDS011;37835;53.256;6.456;2022-11-20T16:18:10;16.92;;;11.18;;
51764;SDS011;37835;53.256;6.456;2022-11-20T16:20:42;17.15;;;11.75;;